sensor_id;sensor_type;location;lat;lon;timestamp;P1;durP1;ratioP1;P2;durP2;ratioP2
20896;SDS011;10608;42.600;23.398;2023-07-08T00:00:43;81.03;;;77.23;;
20896;SDS011;10608;42.600;23.398;2023-07-08T00:03:10;78.07;;;74.00;;
20896;SDS011;10608;42.600;23.398;2023-07-08T00:05:36;76.57;;;72.60;;
20896;SDS011;10608;42.600;23.398;2023-07-08T00:08:02;85.43;;;81.03;;
20896;SDS011;10608;42.600;23.398;2023-07-08T00:10:28;88.50;;;83.70;;
20896;SDS011;10608;42.600;23.398;2023-07-08T00:12:57;84.87;;;80.77;;
20896;SDS011;10608;42.600;23.398;2023-07-08T00:15:27;79.43;;;75.60;;
20896;SDS011;10608;42.600;23.398;2023-07-08T00:17:56;84.67;;;80.50;;
20896;SDS011;10608;42.600;23.398;2023-07-08T00:22:57;85.50;;;81.33;;
20896;SDS011;10608;42.600;23.398;2023-07-08T00:25:25;109.80;;;104.60;;
20896;SDS011;10608;42.600;23.398;2023-07-08T00:27:51;137.10;;;130.70;;
20896;SDS011;10608;42.600;23.398;2023-07-08T00:32:52;100.57;;;95.77;;
20896;SDS011;10608;42.600;23.398;2023-07-08T00:35:24;104.77;;;99.70;;
20896;SDS011;10608;42.600;23.398;2023-07-08T00:37:55;105.03;;;100.10;;
20896;SDS011;10608;42.600;23.398;2023-07-08T00:40:26;89.27;;;85.03;;
20896;SDS011;10608;42.600;23.398;2023-07-08T00:42:58;91.30;;;87.00;;
20896;SDS011;10608;42.600;23.398;2023-07-08T00:45:29;99.87;;;94.90;;
20896;SDS011;10608;42.600;23.398;2023-07-08T00:48:07;107.70;;;102.33;;
20896;SDS011;10608;42.600;23.398;2023-07-08T00:50:34;127.03;;;120.83;;
20896;SDS011;10608;42.600;23.398;2023-07-08T00:55:48;151.07;;;143.43;;
20896;SDS011;10608;42.600;23.398;2023-07-08T00:58:15;139.47;;;133.10;;
20896;SDS011;10608;42.600;23.398;2023-07-08T01:00:44;132.93;;;126.87;;
20896;SDS011;10608;42.600;23.398;2023-07-08T01:03:10;125.20;;;119.30;;
20896;SDS011;10608;42.600;23.398;2023-07-08T01:05:35;106.87;;;101.97;;
20896;SDS011;10608;42.600;23.398;2023-07-08T01:08:03;104.87;;;99.93;;
20896;SDS011;10608;42.600;23.398;2023-07-08T01:10:39;106.03;;;101.07;;
20896;SDS011;10608;42.600;23.398;2023-07-08T01:13:11;102.33;;;97.43;;
20896;SDS011;10608;42.600;23.398;2023-07-08T01:15:40;104.87;;;99.80;;
20896;SDS011;10608;42.600;23.398;2023-07-08T01:18:08;130.47;;;123.73;;
20896;SDS011;10608;42.600;23.398;2023-07-08T01:20:36;137.20;;;130.83;;
20896;SDS011;10608;42.600;23.398;2023-07-08T01:23:02;136.47;;;130.37;;
20896;SDS011;10608;42.600;23.398;2023-07-08T01:25:27;127.00;;;120.93;;
20896;SDS011;10608;42.600;23.398;2023-07-08T01:27:53;124.30;;;118.40;;
20896;SDS011;10608;42.600;23.398;2023-07-08T01:30:21;132.87;;;126.60;;
20896;SDS011;10608;42.600;23.398;2023-07-08T01:32:52;110.03;;;104.60;;
20896;SDS011;10608;42.600;23.398;2023-07-08T01:35:22;117.13;;;111.60;;
20896;SDS011;10608;42.600;23.398;2023-07-08T01:40:35;115.10;;;109.77;;
20896;SDS011;10608;42.600;23.398;2023-07-08T01:43:00;95.63;;;91.03;;
20896;SDS011;10608;42.600;23.398;2023-07-08T01:45:28;84.93;;;80.97;;
20896;SDS011;10608;42.600;23.398;2023-07-08T01:48:01;96.27;;;91.33;;
20896;SDS011;10608;42.600;23.398;2023-07-08T01:50:31;105.67;;;100.13;;
20896;SDS011;10608;42.600;23.398;2023-07-08T01:52:59;114.70;;;108.77;;
20896;SDS011;10608;42.600;23.398;2023-07-08T01:55:27;113.23;;;107.43;;
20896;SDS011;10608;42.600;23.398;2023-07-08T01:57:56;123.93;;;118.00;;
20896;SDS011;10608;42.600;23.398;2023-07-08T02:00:22;118.50;;;113.10;;
20896;SDS011;10608;42.600;23.398;2023-07-08T02:02:48;110.03;;;104.73;;
20896;SDS011;10608;42.600;23.398;2023-07-08T02:05:15;115.60;;;109.97;;
20896;SDS011;10608;42.600;23.398;2023-07-08T02:07:40;123.77;;;117.93;;
20896;SDS011;10608;42.600;23.398;2023-07-08T02:10:06;131.73;;;125.27;;
20896;SDS011;10608;42.600;23.398;2023-07-08T02:12:31;134.27;;;127.63;;
20896;SDS011;10608;42.600;23.398;2023-07-08T02:14:59;137.67;;;131.03;;
20896;SDS011;10608;42.600;23.398;2023-07-08T02:17:25;132.03;;;125.57;;
20896;SDS011;10608;42.600;23.398;2023-07-08T02:19:50;127.33;;;121.27;;
20896;SDS011;10608;42.600;23.398;2023-07-08T02:22:15;119.53;;;114.07;;
20896;SDS011;10608;42.600;23.398;2023-07-08T02:24:41;99.20;;;94.60;;
20896;SDS011;10608;42.600;23.398;2023-07-08T02:27:06;108.07;;;103.07;;
20896;SDS011;10608;42.600;23.398;2023-07-08T02:29:32;122.00;;;116.30;;
20896;SDS011;10608;42.600;23.398;2023-07-08T02:31:57;134.30;;;128.33;;
20896;SDS011;10608;42.600;23.398;2023-07-08T02:34:23;131.77;;;125.80;;
20896;SDS011;10608;42.600;23.398;2023-07-08T02:36:48;131.93;;;125.97;;
20896;SDS011;10608;42.600;23.398;2023-07-08T02:39:13;132.30;;;126.17;;
20896;SDS011;10608;42.600;23.398;2023-07-08T02:41:39;129.90;;;123.70;;
20896;SDS011;10608;42.600;23.398;2023-07-08T02:44:04;118.37;;;113.10;;
20896;SDS011;10608;42.600;23.398;2023-07-08T02:46:30;93.97;;;89.17;;
20896;SDS011;10608;42.600;23.398;2023-07-08T02:48:55;105.90;;;101.03;;
20896;SDS011;10608;42.600;23.398;2023-07-08T02:51:21;111.27;;;105.90;;
20896;SDS011;10608;42.600;23.398;2023-07-08T02:53:47;109.43;;;104.23;;
20896;SDS011;10608;42.600;23.398;2023-07-08T02:56:14;108.23;;;103.00;;
20896;SDS011;10608;42.600;23.398;2023-07-08T02:58:40;115.83;;;110.37;;
20896;SDS011;10608;42.600;23.398;2023-07-08T03:01:05;136.50;;;130.10;;
20896;SDS011;10608;42.600;23.398;2023-07-08T03:03:31;119.73;;;114.23;;
20896;SDS011;10608;42.600;23.398;2023-07-08T03:05:57;123.67;;;117.90;;
20896;SDS011;10608;42.600;23.398;2023-07-08T03:08:24;111.17;;;105.90;;
20896;SDS011;10608;42.600;23.398;2023-07-08T03:10:54;134.10;;;127.90;;
20896;SDS011;10608;42.600;23.398;2023-07-08T03:13:23;121.97;;;116.30;;
20896;SDS011;10608;42.600;23.398;2023-07-08T03:15:50;121.70;;;116.10;;
20896;SDS011;10608;42.600;23.398;2023-07-08T03:18:15;124.40;;;118.63;;
20896;SDS011;10608;42.600;23.398;2023-07-08T03:20:41;156.57;;;149.40;;
20896;SDS011;10608;42.600;23.398;2023-07-08T03:23:09;180.03;;;171.60;;
20896;SDS011;10608;42.600;23.398;2023-07-08T03:25:38;152.70;;;145.60;;
20896;SDS011;10608;42.600;23.398;2023-07-08T03:28:03;153.80;;;146.77;;
20896;SDS011;10608;42.600;23.398;2023-07-08T03:30:33;165.27;;;157.87;;
20896;SDS011;10608;42.600;23.398;2023-07-08T03:32:59;130.47;;;124.70;;
20896;SDS011;10608;42.600;23.398;2023-07-08T03:35:25;129.97;;;124.07;;
20896;SDS011;10608;42.600;23.398;2023-07-08T03:37:51;91.07;;;86.57;;
20896;SDS011;10608;42.600;23.398;2023-07-08T03:40:18;57.23;;;54.43;;
20896;SDS011;10608;42.600;23.398;2023-07-08T03:42:43;54.03;;;51.50;;
20896;SDS011;10608;42.600;23.398;2023-07-08T03:45:09;33.00;;;31.23;;
20896;SDS011;10608;42.600;23.398;2023-07-08T03:47:34;35.80;;;34.00;;
20896;SDS011;10608;42.600;23.398;2023-07-08T03:50:00;42.40;;;40.37;;
20896;SDS011;10608;42.600;23.398;2023-07-08T03:52:26;38.13;;;36.30;;
20896;SDS011;10608;42.600;23.398;2023-07-08T03:54:51;32.13;;;30.53;;
20896;SDS011;10608;42.600;23.398;2023-07-08T03:57:17;40.80;;;38.00;;
20896;SDS011;10608;42.600;23.398;2023-07-08T03:59:42;46.23;;;44.03;;
20896;SDS011;10608;42.600;23.398;2023-07-08T04:02:09;45.10;;;42.90;;
20896;SDS011;10608;42.600;23.398;2023-07-08T04:04:36;61.80;;;58.87;;
20896;SDS011;10608;42.600;23.398;2023-07-08T04:07:03;57.67;;;54.97;;
20896;SDS011;10608;42.600;23.398;2023-07-08T04:09:29;50.57;;;48.17;;
20896;SDS011;10608;42.600;23.398;2023-07-08T04:11:54;51.53;;;49.20;;
20896;SDS011;10608;42.600;23.398;2023-07-08T04:14:20;43.97;;;41.97;;
20896;SDS011;10608;42.600;23.398;2023-07-08T04:19:14;17.83;;;16.70;;
20896;SDS011;10608;42.600;23.398;2023-07-08T04:21:40;23.07;;;21.87;;
20896;SDS011;10608;42.600;23.398;2023-07-08T04:24:08;24.60;;;23.40;;
20896;SDS011;10608;42.600;23.398;2023-07-08T04:26:37;40.07;;;38.20;;
20896;SDS011;10608;42.600;23.398;2023-07-08T04:29:04;29.80;;;28.40;;
20896;SDS011;10608;42.600;23.398;2023-07-08T04:31:36;23.63;;;22.43;;
20896;SDS011;10608;42.600;23.398;2023-07-08T04:34:02;22.13;;;20.90;;
20896;SDS011;10608;42.600;23.398;2023-07-08T04:36:28;35.90;;;34.13;;
20896;SDS011;10608;42.600;23.398;2023-07-08T04:38:53;41.10;;;39.20;;
20896;SDS011;10608;42.600;23.398;2023-07-08T04:41:18;40.33;;;38.33;;
20896;SDS011;10608;42.600;23.398;2023-07-08T04:43:44;50.83;;;48.37;;
20896;SDS011;10608;42.600;23.398;2023-07-08T04:46:14;46.40;;;44.07;;
20896;SDS011;10608;42.600;23.398;2023-07-08T04:49:00;38.07;;;36.27;;
20896;SDS011;10608;42.600;23.398;2023-07-08T04:51:28;41.63;;;39.63;;
20896;SDS011;10608;42.600;23.398;2023-07-08T04:53:53;45.97;;;43.87;;
20896;SDS011;10608;42.600;23.398;2023-07-08T04:56:19;46.27;;;44.13;;
20896;SDS011;10608;42.600;23.398;2023-07-08T04:58:44;62.67;;;59.80;;
20896;SDS011;10608;42.600;23.398;2023-07-08T05:01:10;22.40;;;21.20;;
20896;SDS011;10608;42.600;23.398;2023-07-08T05:03:35;39.53;;;37.60;;
20896;SDS011;10608;42.600;23.398;2023-07-08T05:06:01;36.93;;;35.13;;
20896;SDS011;10608;42.600;23.398;2023-07-08T05:08:26;23.90;;;22.33;;
20896;SDS011;10608;42.600;23.398;2023-07-08T05:10:51;21.20;;;20.10;;
20896;SDS011;10608;42.600;23.398;2023-07-08T05:13:17;29.53;;;28.03;;
20896;SDS011;10608;42.600;23.398;2023-07-08T05:15:42;41.10;;;39.13;;
20896;SDS011;10608;42.600;23.398;2023-07-08T05:18:08;42.37;;;40.37;;
20896;SDS011;10608;42.600;23.398;2023-07-08T05:20:33;27.00;;;25.70;;
20896;SDS011;10608;42.600;23.398;2023-07-08T05:23:00;42.33;;;40.47;;
20896;SDS011;10608;42.600;23.398;2023-07-08T05:25:26;30.87;;;29.37;;
20896;SDS011;10608;42.600;23.398;2023-07-08T05:27:52;31.80;;;30.10;;
20896;SDS011;10608;42.600;23.398;2023-07-08T05:30:18;23.57;;;22.33;;
20896;SDS011;10608;42.600;23.398;2023-07-08T05:32:44;23.63;;;22.40;;
20896;SDS011;10608;42.600;23.398;2023-07-08T05:35:10;27.03;;;25.73;;
20896;SDS011;10608;42.600;23.398;2023-07-08T05:37:35;41.27;;;39.40;;
20896;SDS011;10608;42.600;23.398;2023-07-08T05:40:01;46.20;;;44.13;;
20896;SDS011;10608;42.600;23.398;2023-07-08T05:42:29;47.80;;;45.50;;
20896;SDS011;10608;42.600;23.398;2023-07-08T05:44:55;38.43;;;36.73;;
20896;SDS011;10608;42.600;23.398;2023-07-08T05:47:20;31.63;;;30.20;;
20896;SDS011;10608;42.600;23.398;2023-07-08T05:49:47;23.33;;;22.23;;
20896;SDS011;10608;42.600;23.398;2023-07-08T05:52:13;26.13;;;24.67;;
20896;SDS011;10608;42.600;23.398;2023-07-08T05:54:39;20.03;;;19.03;;
20896;SDS011;10608;42.600;23.398;2023-07-08T05:57:06;31.27;;;29.53;;
20896;SDS011;10608;42.600;23.398;2023-07-08T05:59:34;49.33;;;47.03;;
20896;SDS011;10608;42.600;23.398;2023-07-08T06:02:00;30.57;;;28.97;;
20896;SDS011;10608;42.600;23.398;2023-07-08T06:04:26;31.93;;;30.37;;
20896;SDS011;10608;42.600;23.398;2023-07-08T06:06:52;32.97;;;31.43;;
20896;SDS011;10608;42.600;23.398;2023-07-08T06:09:18;27.47;;;26.13;;
20896;SDS011;10608;42.600;23.398;2023-07-08T06:11:44;17.00;;;16.17;;
20896;SDS011;10608;42.600;23.398;2023-07-08T06:14:09;22.97;;;21.87;;
20896;SDS011;10608;42.600;23.398;2023-07-08T06:16:35;25.20;;;23.90;;
20896;SDS011;10608;42.600;23.398;2023-07-08T06:19:00;12.90;;;12.20;;
20896;SDS011;10608;42.600;23.398;2023-07-08T06:21:25;52.10;;;49.80;;
20896;SDS011;10608;42.600;23.398;2023-07-08T06:23:51;50.33;;;47.90;;
20896;SDS011;10608;42.600;23.398;2023-07-08T06:26:17;21.33;;;20.33;;
20896;SDS011;10608;42.600;23.398;2023-07-08T06:28:42;73.07;;;69.90;;
20896;SDS011;10608;42.600;23.398;2023-07-08T06:31:08;31.10;;;29.60;;
20896;SDS011;10608;42.600;23.398;2023-07-08T06:33:33;21.03;;;20.03;;
20896;SDS011;10608;42.600;23.398;2023-07-08T06:35:58;19.13;;;18.23;;
20896;SDS011;10608;42.600;23.398;2023-07-08T06:38:24;53.60;;;51.17;;
20896;SDS011;10608;42.600;23.398;2023-07-08T06:40:49;46.43;;;44.33;;
20896;SDS011;10608;42.600;23.398;2023-07-08T06:43:15;28.37;;;26.53;;
20896;SDS011;10608;42.600;23.398;2023-07-08T06:45:40;48.60;;;46.43;;
20896;SDS011;10608;42.600;23.398;2023-07-08T06:48:07;65.30;;;62.40;;
20896;SDS011;10608;42.600;23.398;2023-07-08T06:50:33;32.10;;;30.57;;
20896;SDS011;10608;42.600;23.398;2023-07-08T06:52:58;40.93;;;38.93;;
20896;SDS011;10608;42.600;23.398;2023-07-08T06:55:23;50.00;;;47.67;;
20896;SDS011;10608;42.600;23.398;2023-07-08T06:57:49;49.20;;;47.00;;
20896;SDS011;10608;42.600;23.398;2023-07-08T07:00:14;46.67;;;44.27;;
20896;SDS011;10608;42.600;23.398;2023-07-08T07:02:40;59.67;;;56.97;;
20896;SDS011;10608;42.600;23.398;2023-07-08T07:05:06;45.73;;;43.53;;
20896;SDS011;10608;42.600;23.398;2023-07-08T07:07:31;57.63;;;55.03;;
20896;SDS011;10608;42.600;23.398;2023-07-08T07:09:57;44.57;;;42.27;;
20896;SDS011;10608;42.600;23.398;2023-07-08T07:12:23;66.40;;;63.43;;
20896;SDS011;10608;42.600;23.398;2023-07-08T07:14:49;30.80;;;29.27;;
20896;SDS011;10608;42.600;23.398;2023-07-08T07:17:17;28.00;;;26.53;;
20896;SDS011;10608;42.600;23.398;2023-07-08T07:19:43;17.90;;;16.90;;
20896;SDS011;10608;42.600;23.398;2023-07-08T07:22:09;19.50;;;18.53;;
20896;SDS011;10608;42.600;23.398;2023-07-08T07:24:34;31.53;;;30.03;;
20896;SDS011;10608;42.600;23.398;2023-07-08T07:26:59;30.03;;;28.57;;
20896;SDS011;10608;42.600;23.398;2023-07-08T07:29:25;19.30;;;18.30;;
20896;SDS011;10608;42.600;23.398;2023-07-08T07:31:50;20.37;;;19.17;;
20896;SDS011;10608;42.600;23.398;2023-07-08T07:34:16;16.43;;;15.47;;
20896;SDS011;10608;42.600;23.398;2023-07-08T07:36:42;19.03;;;17.77;;
20896;SDS011;10608;42.600;23.398;2023-07-08T07:39:07;15.20;;;14.10;;
20896;SDS011;10608;42.600;23.398;2023-07-08T07:41:33;23.83;;;22.53;;
20896;SDS011;10608;42.600;23.398;2023-07-08T07:43:58;19.83;;;18.73;;
20896;SDS011;10608;42.600;23.398;2023-07-08T07:46:24;15.57;;;14.77;;
20896;SDS011;10608;42.600;23.398;2023-07-08T07:48:49;22.33;;;21.13;;
20896;SDS011;10608;42.600;23.398;2023-07-08T07:51:14;19.47;;;18.40;;
20896;SDS011;10608;42.600;23.398;2023-07-08T07:53:40;33.13;;;31.33;;
20896;SDS011;10608;42.600;23.398;2023-07-08T07:56:06;21.98;;;20.85;;
20896;SDS011;10608;42.600;23.398;2023-07-08T07:58:32;19.70;;;18.75;;
20896;SDS011;10608;42.600;23.398;2023-07-08T08:00:58;22.02;;;20.92;;
20896;SDS011;10608;42.600;23.398;2023-07-08T08:03:23;17.85;;;16.85;;
20896;SDS011;10608;42.600;23.398;2023-07-08T08:05:49;15.25;;;14.45;;
20896;SDS011;10608;42.600;23.398;2023-07-08T08:08:14;14.75;;;14.02;;
20896;SDS011;10608;42.600;23.398;2023-07-08T08:10:40;14.70;;;13.88;;
20896;SDS011;10608;42.600;23.398;2023-07-08T08:13:07;16.17;;;15.25;;
20896;SDS011;10608;42.600;23.398;2023-07-08T08:15:33;14.68;;;13.77;;
20896;SDS011;10608;42.600;23.398;2023-07-08T08:17:59;13.88;;;13.07;;
20896;SDS011;10608;42.600;23.398;2023-07-08T08:20:24;12.90;;;11.77;;
20896;SDS011;10608;42.600;23.398;2023-07-08T08:22:51;11.63;;;10.80;;
20896;SDS011;10608;42.600;23.398;2023-07-08T08:25:17;12.32;;;11.38;;
20896;SDS011;10608;42.600;23.398;2023-07-08T08:27:44;11.30;;;10.60;;
20896;SDS011;10608;42.600;23.398;2023-07-08T08:30:10;11.07;;;10.48;;
20896;SDS011;10608;42.600;23.398;2023-07-08T08:32:36;12.73;;;11.93;;
20896;SDS011;10608;42.600;23.398;2023-07-08T08:35:02;14.90;;;13.90;;
20896;SDS011;10608;42.600;23.398;2023-07-08T08:37:28;15.80;;;14.93;;
20896;SDS011;10608;42.600;23.398;2023-07-08T08:39:53;11.80;;;11.20;;
20896;SDS011;10608;42.600;23.398;2023-07-08T08:42:22;11.07;;;10.27;;
20896;SDS011;10608;42.600;23.398;2023-07-08T08:44:52;10.98;;;10.18;;
20896;SDS011;10608;42.600;23.398;2023-07-08T08:47:25;11.23;;;10.52;;
20896;SDS011;10608;42.600;23.398;2023-07-08T08:52:58;12.32;;;11.63;;
20896;SDS011;10608;42.600;23.398;2023-07-08T08:55:26;14.00;;;13.27;;
20896;SDS011;10608;42.600;23.398;2023-07-08T09:01:02;12.77;;;11.95;;
20896;SDS011;10608;42.600;23.398;2023-07-08T09:06:00;17.67;;;16.45;;
20896;SDS011;10608;42.600;23.398;2023-07-08T09:08:35;12.00;;;11.30;;
20896;SDS011;10608;42.600;23.398;2023-07-08T09:11:07;16.50;;;15.50;;
20896;SDS011;10608;42.600;23.398;2023-07-08T09:13:40;20.93;;;19.83;;
20896;SDS011;10608;42.600;23.398;2023-07-08T09:21:50;14.87;;;14.07;;
20896;SDS011;10608;42.600;23.398;2023-07-08T09:24:27;19.07;;;18.00;;
20896;SDS011;10608;42.600;23.398;2023-07-08T09:26:58;17.47;;;16.47;;
20896;SDS011;10608;42.600;23.398;2023-07-08T09:29:26;33.23;;;31.43;;
20896;SDS011;10608;42.600;23.398;2023-07-08T09:31:51;17.63;;;16.73;;
20896;SDS011;10608;42.600;23.398;2023-07-08T09:34:21;18.07;;;16.83;;
20896;SDS011;10608;42.600;23.398;2023-07-08T09:36:48;14.30;;;13.37;;
20896;SDS011;10608;42.600;23.398;2023-07-08T09:39:16;34.20;;;32.60;;
20896;SDS011;10608;42.600;23.398;2023-07-08T09:41:45;27.47;;;25.73;;
20896;SDS011;10608;42.600;23.398;2023-07-08T09:46:43;22.53;;;21.30;;
20896;SDS011;10608;42.600;23.398;2023-07-08T09:49:14;25.37;;;24.10;;
20896;SDS011;10608;42.600;23.398;2023-07-08T09:51:42;27.67;;;26.20;;
20896;SDS011;10608;42.600;23.398;2023-07-08T09:54:08;24.60;;;23.20;;
20896;SDS011;10608;42.600;23.398;2023-07-08T09:56:33;20.27;;;19.20;;
20896;SDS011;10608;42.600;23.398;2023-07-08T09:58:59;17.67;;;16.77;;
20896;SDS011;10608;42.600;23.398;2023-07-08T10:01:25;19.20;;;18.17;;
20896;SDS011;10608;42.600;23.398;2023-07-08T10:03:57;21.50;;;20.33;;
20896;SDS011;10608;42.600;23.398;2023-07-08T10:06:28;29.50;;;28.00;;
20896;SDS011;10608;42.600;23.398;2023-07-08T10:08:59;28.27;;;26.93;;
20896;SDS011;10608;42.600;23.398;2023-07-08T10:11:34;31.73;;;30.13;;
20896;SDS011;10608;42.600;23.398;2023-07-08T10:14:14;40.73;;;38.73;;
20896;SDS011;10608;42.600;23.398;2023-07-08T10:16:50;26.03;;;24.53;;
20896;SDS011;10608;42.600;23.398;2023-07-08T10:19:16;22.80;;;21.60;;
20896;SDS011;10608;42.600;23.398;2023-07-08T10:32:30;18.37;;;17.27;;
20896;SDS011;10608;42.600;23.398;2023-07-08T10:35:19;17.00;;;16.07;;
20896;SDS011;10608;42.600;23.398;2023-07-08T10:43:12;15.90;;;14.93;;
20896;SDS011;10608;42.600;23.398;2023-07-08T10:56:16;17.03;;;16.13;;
20896;SDS011;10608;42.600;23.398;2023-07-08T11:04:50;16.67;;;15.77;;
20896;SDS011;10608;42.600;23.398;2023-07-08T11:07:16;24.97;;;23.57;;
20896;SDS011;10608;42.600;23.398;2023-07-08T11:09:56;24.83;;;23.63;;
20896;SDS011;10608;42.600;23.398;2023-07-08T11:15:39;21.10;;;19.97;;
20896;SDS011;10608;42.600;23.398;2023-07-08T11:23:42;44.67;;;42.60;;
20896;SDS011;10608;42.600;23.398;2023-07-08T11:28:57;31.10;;;29.60;;
20896;SDS011;10608;42.600;23.398;2023-07-08T11:31:24;29.90;;;28.43;;
20896;SDS011;10608;42.600;23.398;2023-07-08T11:33:53;33.20;;;31.60;;
20896;SDS011;10608;42.600;23.398;2023-07-08T11:36:19;24.13;;;22.73;;
20896;SDS011;10608;42.600;23.398;2023-07-08T11:38:48;21.27;;;20.17;;
20896;SDS011;10608;42.600;23.398;2023-07-08T11:41:15;22.57;;;21.50;;
20896;SDS011;10608;42.600;23.398;2023-07-08T11:43:50;22.47;;;21.33;;
20896;SDS011;10608;42.600;23.398;2023-07-08T11:46:22;23.47;;;22.40;;
20896;SDS011;10608;42.600;23.398;2023-07-08T11:48:54;24.60;;;23.37;;
20896;SDS011;10608;42.600;23.398;2023-07-08T11:51:29;43.50;;;41.60;;
20896;SDS011;10608;42.600;23.398;2023-07-08T11:54:06;19.80;;;18.83;;
20896;SDS011;10608;42.600;23.398;2023-07-08T11:59:42;15.07;;;14.27;;
20896;SDS011;10608;42.600;23.398;2023-07-08T12:05:00;44.17;;;42.23;;
20896;SDS011;10608;42.600;23.398;2023-07-08T12:07:31;25.37;;;24.23;;
20896;SDS011;10608;42.600;23.398;2023-07-08T12:12:36;12.40;;;11.70;;
20896;SDS011;10608;42.600;23.398;2023-07-08T12:15:09;12.43;;;11.70;;
20896;SDS011;10608;42.600;23.398;2023-07-08T12:17:39;12.73;;;12.13;;
20896;SDS011;10608;42.600;23.398;2023-07-08T12:20:12;22.47;;;21.47;;
20896;SDS011;10608;42.600;23.398;2023-07-08T12:22:43;12.77;;;12.13;;
20896;SDS011;10608;42.600;23.398;2023-07-08T12:25:12;11.73;;;11.13;;
20896;SDS011;10608;42.600;23.398;2023-07-08T12:27:41;12.00;;;11.30;;
20896;SDS011;10608;42.600;23.398;2023-07-08T12:30:08;12.80;;;12.20;;
20896;SDS011;10608;42.600;23.398;2023-07-08T12:32:36;11.80;;;11.27;;
20896;SDS011;10608;42.600;23.398;2023-07-08T12:35:01;15.63;;;14.83;;
20896;SDS011;10608;42.600;23.398;2023-07-08T12:37:29;13.30;;;12.60;;
20896;SDS011;10608;42.600;23.398;2023-07-08T12:39:56;17.97;;;17.10;;
20896;SDS011;10608;42.600;23.398;2023-07-08T12:42:28;44.00;;;42.10;;
20896;SDS011;10608;42.600;23.398;2023-07-08T12:44:55;12.13;;;11.53;;
20896;SDS011;10608;42.600;23.398;2023-07-08T12:47:20;13.50;;;12.80;;
20896;SDS011;10608;42.600;23.398;2023-07-08T12:49:46;16.17;;;15.27;;
20896;SDS011;10608;42.600;23.398;2023-07-08T12:52:21;17.90;;;16.90;;
20896;SDS011;10608;42.600;23.398;2023-07-08T12:54:48;14.87;;;14.17;;
20896;SDS011;10608;42.600;23.398;2023-07-08T12:57:14;12.93;;;12.23;;
20896;SDS011;10608;42.600;23.398;2023-07-08T12:59:42;14.07;;;13.27;;
20896;SDS011;10608;42.600;23.398;2023-07-08T13:02:15;13.67;;;12.93;;
20896;SDS011;10608;42.600;23.398;2023-07-08T13:04:44;14.60;;;13.57;;
20896;SDS011;10608;42.600;23.398;2023-07-08T13:10:16;12.40;;;11.80;;
20896;SDS011;10608;42.600;23.398;2023-07-08T13:12:45;13.37;;;12.57;;
20896;SDS011;10608;42.600;23.398;2023-07-08T13:15:19;13.87;;;13.17;;
20896;SDS011;10608;42.600;23.398;2023-07-08T13:17:54;14.00;;;13.27;;
20896;SDS011;10608;42.600;23.398;2023-07-08T13:20:21;37.83;;;36.10;;
20896;SDS011;10608;42.600;23.398;2023-07-08T13:22:50;25.93;;;24.73;;
20896;SDS011;10608;42.600;23.398;2023-07-08T13:25:19;18.83;;;17.93;;
20896;SDS011;10608;42.600;23.398;2023-07-08T13:30:50;16.70;;;15.90;;
20896;SDS011;10608;42.600;23.398;2023-07-08T13:33:20;23.50;;;22.20;;
20896;SDS011;10608;42.600;23.398;2023-07-08T13:35:47;22.87;;;21.77;;
20896;SDS011;10608;42.600;23.398;2023-07-08T13:38:20;21.33;;;20.23;;
20896;SDS011;10608;42.600;23.398;2023-07-08T13:40:49;22.73;;;21.43;;
20896;SDS011;10608;42.600;23.398;2023-07-08T13:43:23;21.07;;;19.90;;
20896;SDS011;10608;42.600;23.398;2023-07-08T13:45:53;23.70;;;22.53;;
20896;SDS011;10608;42.600;23.398;2023-07-08T13:48:38;23.83;;;22.73;;
20896;SDS011;10608;42.600;23.398;2023-07-08T13:51:14;22.43;;;21.40;;
20896;SDS011;10608;42.600;23.398;2023-07-08T13:53:44;24.87;;;23.73;;
20896;SDS011;10608;42.600;23.398;2023-07-08T13:56:14;32.03;;;30.47;;
20896;SDS011;10608;42.600;23.398;2023-07-08T13:58:49;20.83;;;19.77;;
20896;SDS011;10608;42.600;23.398;2023-07-08T14:01:18;16.17;;;15.37;;
20896;SDS011;10608;42.600;23.398;2023-07-08T14:03:45;19.27;;;18.37;;
20896;SDS011;10608;42.600;23.398;2023-07-08T14:06:13;30.80;;;29.13;;
20896;SDS011;10608;42.600;23.398;2023-07-08T14:08:42;29.27;;;27.87;;
20896;SDS011;10608;42.600;23.398;2023-07-08T14:11:08;19.20;;;18.10;;
20896;SDS011;10608;42.600;23.398;2023-07-08T14:13:33;21.03;;;20.03;;
20896;SDS011;10608;42.600;23.398;2023-07-08T14:15:59;31.20;;;29.70;;
20896;SDS011;10608;42.600;23.398;2023-07-08T14:18:25;28.53;;;27.03;;
20896;SDS011;10608;42.600;23.398;2023-07-08T14:20:51;24.53;;;23.33;;
20896;SDS011;10608;42.600;23.398;2023-07-08T14:23:17;25.77;;;24.57;;
20896;SDS011;10608;42.600;23.398;2023-07-08T14:25:43;25.77;;;24.47;;
20896;SDS011;10608;42.600;23.398;2023-07-08T14:28:09;24.87;;;23.63;;
20896;SDS011;10608;42.600;23.398;2023-07-08T14:30:35;29.23;;;27.93;;
20896;SDS011;10608;42.600;23.398;2023-07-08T14:33:10;31.23;;;29.77;;
20896;SDS011;10608;42.600;23.398;2023-07-08T14:35:36;27.97;;;26.67;;
20896;SDS011;10608;42.600;23.398;2023-07-08T14:38:02;17.70;;;16.80;;
20896;SDS011;10608;42.600;23.398;2023-07-08T14:40:32;22.03;;;20.83;;
20896;SDS011;10608;42.600;23.398;2023-07-08T14:45:32;21.27;;;20.27;;
20896;SDS011;10608;42.600;23.398;2023-07-08T14:48:07;21.97;;;20.67;;
20896;SDS011;10608;42.600;23.398;2023-07-08T14:50:33;20.03;;;19.03;;
20896;SDS011;10608;42.600;23.398;2023-07-08T14:52:58;15.00;;;14.30;;
20896;SDS011;10608;42.600;23.398;2023-07-08T14:55:24;17.20;;;16.33;;
20896;SDS011;10608;42.600;23.398;2023-07-08T14:57:50;22.63;;;21.53;;
20896;SDS011;10608;42.600;23.398;2023-07-08T15:00:17;25.80;;;24.50;;
20896;SDS011;10608;42.600;23.398;2023-07-08T15:02:44;22.13;;;20.93;;
20896;SDS011;10608;42.600;23.398;2023-07-08T15:05:19;18.07;;;17.23;;
20896;SDS011;10608;42.600;23.398;2023-07-08T15:07:53;28.30;;;26.97;;
20896;SDS011;10608;42.600;23.398;2023-07-08T15:10:26;30.10;;;28.67;;
20896;SDS011;10608;42.600;23.398;2023-07-08T15:12:54;24.33;;;23.13;;
20896;SDS011;10608;42.600;23.398;2023-07-08T15:15:28;17.63;;;16.73;;
20896;SDS011;10608;42.600;23.398;2023-07-08T15:18:00;13.97;;;13.27;;
20896;SDS011;10608;42.600;23.398;2023-07-08T15:20:27;18.70;;;17.80;;
20896;SDS011;10608;42.600;23.398;2023-07-08T15:22:53;15.63;;;14.80;;
20896;SDS011;10608;42.600;23.398;2023-07-08T15:25:19;17.87;;;16.33;;
20896;SDS011;10608;42.600;23.398;2023-07-08T15:27:45;18.40;;;17.40;;
20896;SDS011;10608;42.600;23.398;2023-07-08T15:30:14;26.90;;;25.60;;
20896;SDS011;10608;42.600;23.398;2023-07-08T15:32:42;39.10;;;37.30;;
20896;SDS011;10608;42.600;23.398;2023-07-08T15:35:11;61.07;;;58.33;;
20896;SDS011;10608;42.600;23.398;2023-07-08T15:37:41;80.00;;;76.60;;